sensor_id;sensor_type;location;lat;lon;timestamp;pressure;altitude;pressure_sealevel;temperature;humidity
64095;BME280;50353;51.420;5.682;2023-06-10T00:02:08;101088.47;;;23.81;52.20
64095;BME280;50353;51.420;5.682;2023-06-10T00:04:34;101087.31;;;23.75;52.36
64095;BME280;50353;51.420;5.682;2023-06-10T00:07:04;101088.84;;;23.70;52.40
64095;BME280;50353;51.420;5.682;2023-06-10T00:09:37;101091.13;;;23.98;51.41
64095;BME280;50353;51.420;5.682;2023-06-10T00:12:04;101092.72;;;23.75;51.64
64095;BME280;50353;51.420;5.682;2023-06-10T00:14:30;101087.84;;;23.62;52.46
64095;BME280;50353;51.420;5.682;2023-06-10T00:16:55;101093.50;;;23.92;51.76
64095;BME280;50353;51.420;5.682;2023-06-10T00:19:22;101095.13;;;24.10;51.12
64095;BME280;50353;51.420;5.682;2023-06-10T00:21:51;101090.78;;;23.20;53.38
64095;BME280;50353;51.420;5.682;2023-06-10T00:24:18;101096.31;;;23.51;52.77
64095;BME280;50353;51.420;5.682;2023-06-10T00:26:43;101094.78;;;23.40;52.58
64095;BME280;50353;51.420;5.682;2023-06-10T00:29:09;101096.97;;;23.37;52.91
64095;BME280;50353;51.420;5.682;2023-06-10T00:31:35;101092.78;;;23.42;53.18
64095;BME280;50353;51.420;5.682;2023-06-10T00:34:01;101096.97;;;23.61;52.28
64095;BME280;50353;51.420;5.682;2023-06-10T00:36:27;101097.84;;;23.45;53.02
64095;BME280;50353;51.420;5.682;2023-06-10T00:38:52;101099.69;;;23.37;53.05
64095;BME280;50353;51.420;5.682;2023-06-10T00:41:18;101100.56;;;23.29;53.38
64095;BME280;50353;51.420;5.682;2023-06-10T00:43:43;101095.28;;;22.94;53.75
64095;BME280;50353;51.420;5.682;2023-06-10T00:46:09;101098.16;;;23.01;53.93
64095;BME280;50353;51.420;5.682;2023-06-10T00:48:36;101096.00;;;23.21;53.44
64095;BME280;50353;51.420;5.682;2023-06-10T00:51:05;101102.22;;;23.13;53.29
64095;BME280;50353;51.420;5.682;2023-06-10T00:53:31;101101.72;;;23.02;53.89
64095;BME280;50353;51.420;5.682;2023-06-10T00:55:57;101100.03;;;23.34;53.07
64095;BME280;50353;51.420;5.682;2023-06-10T00:58:24;101103.41;;;23.11;53.64
64095;BME280;50353;51.420;5.682;2023-06-10T01:00:50;101096.78;;;22.81;54.49
64095;BME280;50353;51.420;5.682;2023-06-10T01:03:16;101094.59;;;22.76;54.84
64095;BME280;50353;51.420;5.682;2023-06-10T01:05:42;101100.34;;;22.73;55.29
64095;BME280;50353;51.420;5.682;2023-06-10T01:10:51;101097.47;;;22.74;54.96
64095;BME280;50353;51.420;5.682;2023-06-10T01:13:18;101097.31;;;22.84;54.08
64095;BME280;50353;51.420;5.682;2023-06-10T01:15:49;101094.25;;;22.71;54.76
64095;BME280;50353;51.420;5.682;2023-06-10T01:18:15;101100.41;;;22.47;55.18
64095;BME280;50353;51.420;5.682;2023-06-10T01:20:42;101102.75;;;22.41;55.59
64095;BME280;50353;51.420;5.682;2023-06-10T01:23:09;101097.06;;;22.44;55.38
64095;BME280;50353;51.420;5.682;2023-06-10T01:25:38;101090.75;;;22.27;55.68
64095;BME280;50353;51.420;5.682;2023-06-10T01:31:09;101102.94;;;22.48;54.95
64095;BME280;50353;51.420;5.682;2023-06-10T01:33:39;101101.69;;;22.26;55.82
64095;BME280;50353;51.420;5.682;2023-06-10T01:36:06;101107.25;;;22.33;55.73
64095;BME280;50353;51.420;5.682;2023-06-10T01:38:33;101108.63;;;21.94;56.34
64095;BME280;50353;51.420;5.682;2023-06-10T01:41:03;101105.97;;;22.02;56.33
64095;BME280;50353;51.420;5.682;2023-06-10T01:43:28;101103.91;;;22.31;55.78
64095;BME280;50353;51.420;5.682;2023-06-10T01:45:57;101109.25;;;21.88;56.57
64095;BME280;50353;51.420;5.682;2023-06-10T01:48:22;101109.31;;;22.04;56.24
64095;BME280;50353;51.420;5.682;2023-06-10T01:50:47;101107.72;;;22.20;55.92
64095;BME280;50353;51.420;5.682;2023-06-10T01:53:13;101101.63;;;22.09;56.70
64095;BME280;50353;51.420;5.682;2023-06-10T01:55:38;101106.47;;;22.06;56.16
64095;BME280;50353;51.420;5.682;2023-06-10T01:58:03;101111.34;;;21.50;57.75
64095;BME280;50353;51.420;5.682;2023-06-10T02:00:29;101104.78;;;21.70;57.20
64095;BME280;50353;51.420;5.682;2023-06-10T02:02:54;101112.59;;;21.82;56.43
64095;BME280;50353;51.420;5.682;2023-06-10T02:05:19;101109.00;;;21.73;57.15
64095;BME280;50353;51.420;5.682;2023-06-10T02:07:44;101111.19;;;21.51;57.24
64095;BME280;50353;51.420;5.682;2023-06-10T02:10:10;101120.66;;;21.82;56.40
64095;BME280;50353;51.420;5.682;2023-06-10T02:12:35;101116.19;;;21.64;57.16
64095;BME280;50353;51.420;5.682;2023-06-10T02:15:01;101111.31;;;21.94;55.61
64095;BME280;50353;51.420;5.682;2023-06-10T02:17:26;101113.53;;;21.46;57.63
64095;BME280;50353;51.420;5.682;2023-06-10T02:19:51;101106.75;;;21.94;56.00
64095;BME280;50353;51.420;5.682;2023-06-10T02:22:24;101111.78;;;21.01;58.52
64095;BME280;50353;51.420;5.682;2023-06-10T02:24:49;101118.69;;;21.39;57.55
64095;BME280;50353;51.420;5.682;2023-06-10T02:27:15;101115.03;;;21.67;57.13
64095;BME280;50353;51.420;5.682;2023-06-10T02:29:41;101112.28;;;21.58;56.72
64095;BME280;50353;51.420;5.682;2023-06-10T02:32:07;101117.00;;;21.38;57.56
64095;BME280;50353;51.420;5.682;2023-06-10T02:34:33;101116.88;;;21.22;58.24
64095;BME280;50353;51.420;5.682;2023-06-10T02:36:58;101119.63;;;21.12;58.80
64095;BME280;50353;51.420;5.682;2023-06-10T02:39:24;101121.59;;;21.46;57.38
64095;BME280;50353;51.420;5.682;2023-06-10T02:41:49;101118.91;;;21.28;58.52
64095;BME280;50353;51.420;5.682;2023-06-10T02:44:14;101123.25;;;21.03;58.98
64095;BME280;50353;51.420;5.682;2023-06-10T02:46:39;101123.19;;;20.76;59.87
64095;BME280;50353;51.420;5.682;2023-06-10T02:49:05;101122.47;;;20.92;59.56
64095;BME280;50353;51.420;5.682;2023-06-10T02:51:30;101121.31;;;21.13;58.79
64095;BME280;50353;51.420;5.682;2023-06-10T02:53:55;101119.94;;;21.09;58.90
64095;BME280;50353;51.420;5.682;2023-06-10T02:56:21;101121.31;;;20.95;59.76
64095;BME280;50353;51.420;5.682;2023-06-10T02:58:46;101119.78;;;21.28;58.44
64095;BME280;50353;51.420;5.682;2023-06-10T03:01:13;101120.16;;;20.98;59.96
64095;BME280;50353;51.420;5.682;2023-06-10T03:03:38;101118.41;;;21.24;58.65
64095;BME280;50353;51.420;5.682;2023-06-10T03:06:07;101119.84;;;21.37;58.46
64095;BME280;50353;51.420;5.682;2023-06-10T03:08:33;101122.50;;;20.65;60.59
64095;BME280;50353;51.420;5.682;2023-06-10T03:10:58;101124.69;;;21.15;59.19
64095;BME280;50353;51.420;5.682;2023-06-10T03:13:24;101131.81;;;21.06;59.50
64095;BME280;50353;51.420;5.682;2023-06-10T03:15:49;101123.78;;;21.24;58.98
64095;BME280;50353;51.420;5.682;2023-06-10T03:18:15;101124.34;;;20.64;60.94
64095;BME280;50353;51.420;5.682;2023-06-10T03:20:40;101125.94;;;20.85;60.46
64095;BME280;50353;51.420;5.682;2023-06-10T03:23:05;101128.47;;;20.86;60.71
64095;BME280;50353;51.420;5.682;2023-06-10T03:25:34;101127.28;;;21.25;59.45
64095;BME280;50353;51.420;5.682;2023-06-10T03:27:59;101132.38;;;20.92;60.14
64095;BME280;50353;51.420;5.682;2023-06-10T03:30:26;101134.34;;;20.72;61.31
64095;BME280;50353;51.420;5.682;2023-06-10T03:32:52;101132.16;;;20.85;60.25
64095;BME280;50353;51.420;5.682;2023-06-10T03:35:17;101144.00;;;20.65;61.47
64095;BME280;50353;51.420;5.682;2023-06-10T03:37:42;101135.16;;;21.00;59.91
64095;BME280;50353;51.420;5.682;2023-06-10T03:40:08;101132.38;;;20.74;61.41
64095;BME280;50353;51.420;5.682;2023-06-10T03:42:34;101141.44;;;20.45;62.61
64095;BME280;50353;51.420;5.682;2023-06-10T03:45:00;101148.81;;;20.61;62.37
64095;BME280;50353;51.420;5.682;2023-06-10T03:47:25;101144.50;;;20.78;61.71
64095;BME280;50353;51.420;5.682;2023-06-10T03:49:50;101145.91;;;20.82;61.81
64095;BME280;50353;51.420;5.682;2023-06-10T03:52:17;101139.22;;;21.04;60.72
64095;BME280;50353;51.420;5.682;2023-06-10T03:54:42;101146.41;;;20.86;61.28
64095;BME280;50353;51.420;5.682;2023-06-10T03:57:07;101141.22;;;21.20;59.36
64095;BME280;50353;51.420;5.682;2023-06-10T03:59:33;101138.44;;;21.30;60.12
64095;BME280;50353;51.420;5.682;2023-06-10T04:01:58;101149.56;;;20.81;61.78
64095;BME280;50353;51.420;5.682;2023-06-10T04:04:23;101148.31;;;20.48;63.17
64095;BME280;50353;51.420;5.682;2023-06-10T04:06:48;101146.81;;;20.45;63.63
64095;BME280;50353;51.420;5.682;2023-06-10T04:09:15;101148.03;;;20.51;63.46
64095;BME280;50353;51.420;5.682;2023-06-10T04:11:41;101146.81;;;20.73;63.21
64095;BME280;50353;51.420;5.682;2023-06-10T04:14:06;101151.91;;;20.66;63.21
64095;BME280;50353;51.420;5.682;2023-06-10T04:16:32;101152.50;;;20.70;63.45
64095;BME280;50353;51.420;5.682;2023-06-10T04:18:59;101149.19;;;20.76;63.34
64095;BME280;50353;51.420;5.682;2023-06-10T04:21:24;101145.03;;;21.36;61.11
64095;BME280;50353;51.420;5.682;2023-06-10T04:23:49;101153.34;;;20.60;64.32
64095;BME280;50353;51.420;5.682;2023-06-10T04:26:15;101153.34;;;20.88;63.22
64095;BME280;50353;51.420;5.682;2023-06-10T04:28:43;101166.84;;;20.79;63.05
64095;BME280;50353;51.420;5.682;2023-06-10T04:31:08;101172.44;;;20.30;65.63
64095;BME280;50353;51.420;5.682;2023-06-10T04:33:33;101179.06;;;20.63;64.32
64095;BME280;50353;51.420;5.682;2023-06-10T04:35:58;101170.97;;;20.73;64.63
64095;BME280;50353;51.420;5.682;2023-06-10T04:38:24;101175.53;;;20.63;65.13
64095;BME280;50353;51.420;5.682;2023-06-10T04:40:49;101173.59;;;20.83;63.55
64095;BME280;50353;51.420;5.682;2023-06-10T04:43:14;101178.34;;;20.71;64.88
64095;BME280;50353;51.420;5.682;2023-06-10T04:45:41;101166.13;;;20.49;65.78
64095;BME280;50353;51.420;5.682;2023-06-10T04:48:10;101165.19;;;20.68;64.43
64095;BME280;50353;51.420;5.682;2023-06-10T04:50:36;101171.69;;;20.65;65.00
64095;BME280;50353;51.420;5.682;2023-06-10T04:53:01;101168.19;;;20.65;65.11
64095;BME280;50353;51.420;5.682;2023-06-10T04:55:26;101175.38;;;20.92;64.14
64095;BME280;50353;51.420;5.682;2023-06-10T04:57:52;101168.00;;;20.94;63.75
64095;BME280;50353;51.420;5.682;2023-06-10T05:00:17;101170.16;;;20.90;64.14
64095;BME280;50353;51.420;5.682;2023-06-10T05:02:43;101169.53;;;20.79;64.82
64095;BME280;50353;51.420;5.682;2023-06-10T05:05:08;101163.69;;;20.83;63.53
64095;BME280;50353;51.420;5.682;2023-06-10T05:07:33;101177.25;;;21.09;63.59
64095;BME280;50353;51.420;5.682;2023-06-10T05:09:58;101167.63;;;21.25;62.59
64095;BME280;50353;51.420;5.682;2023-06-10T05:12:24;101177.69;;;21.41;62.36
64095;BME280;50353;51.420;5.682;2023-06-10T05:14:49;101171.31;;;21.60;61.79
64095;BME280;50353;51.420;5.682;2023-06-10T05:17:14;101176.81;;;20.68;64.72
64095;BME280;50353;51.420;5.682;2023-06-10T05:19:40;101176.16;;;21.20;63.59
64095;BME280;50353;51.420;5.682;2023-06-10T05:22:06;101174.84;;;21.42;63.40
64095;BME280;50353;51.420;5.682;2023-06-10T05:24:31;101175.84;;;21.59;62.27
64095;BME280;50353;51.420;5.682;2023-06-10T05:26:57;101169.84;;;21.92;60.40
64095;BME280;50353;51.420;5.682;2023-06-10T05:29:22;101177.69;;;21.41;62.46
64095;BME280;50353;51.420;5.682;2023-06-10T05:31:48;101166.47;;;21.27;62.56
64095;BME280;50353;51.420;5.682;2023-06-10T05:34:13;101181.06;;;21.43;62.77
64095;BME280;50353;51.420;5.682;2023-06-10T05:36:38;101170.38;;;21.69;61.75
64095;BME280;50353;51.420;5.682;2023-06-10T05:39:04;101170.22;;;21.53;62.04
64095;BME280;50353;51.420;5.682;2023-06-10T05:41:29;101174.88;;;21.95;61.09
64095;BME280;50353;51.420;5.682;2023-06-10T05:43:54;101179.44;;;21.94;60.70
64095;BME280;50353;51.420;5.682;2023-06-10T05:46:20;101177.53;;;22.13;59.66
64095;BME280;50353;51.420;5.682;2023-06-10T05:48:45;101175.72;;;22.22;59.51
64095;BME280;50353;51.420;5.682;2023-06-10T05:51:10;101180.97;;;22.32;59.21
64095;BME280;50353;51.420;5.682;2023-06-10T05:53:36;101173.38;;;21.92;60.28
64095;BME280;50353;51.420;5.682;2023-06-10T05:56:01;101180.22;;;22.13;59.97
64095;BME280;50353;51.420;5.682;2023-06-10T05:58:26;101183.19;;;22.02;60.21
64095;BME280;50353;51.420;5.682;2023-06-10T06:00:52;101180.44;;;21.93;60.10
64095;BME280;50353;51.420;5.682;2023-06-10T06:03:17;101181.25;;;22.47;59.32
64095;BME280;50353;51.420;5.682;2023-06-10T06:05:42;101182.53;;;22.77;57.68
64095;BME280;50353;51.420;5.682;2023-06-10T06:08:07;101172.22;;;22.29;59.03
64095;BME280;50353;51.420;5.682;2023-06-10T06:10:33;101179.41;;;22.47;58.51
64095;BME280;50353;51.420;5.682;2023-06-10T06:13:00;101177.56;;;22.48;58.96
64095;BME280;50353;51.420;5.682;2023-06-10T06:15:25;101181.41;;;23.04;57.04
64095;BME280;50353;51.420;5.682;2023-06-10T06:17:50;101174.13;;;22.80;56.58
64095;BME280;50353;51.420;5.682;2023-06-10T06:20:22;101174.56;;;23.43;56.25
64095;BME280;50353;51.420;5.682;2023-06-10T06:22:48;101178.59;;;23.39;55.66
64095;BME280;50353;51.420;5.682;2023-06-10T06:25:13;101188.56;;;23.46;56.14
64095;BME280;50353;51.420;5.682;2023-06-10T06:27:38;101187.69;;;23.46;55.38
64095;BME280;50353;51.420;5.682;2023-06-10T06:30:04;101180.47;;;23.55;55.73
64095;BME280;50353;51.420;5.682;2023-06-10T06:32:30;101195.47;;;23.66;55.44
64095;BME280;50353;51.420;5.682;2023-06-10T06:34:55;101186.34;;;24.00;52.99
64095;BME280;50353;51.420;5.682;2023-06-10T06:37:22;101191.88;;;24.06;52.17
64095;BME280;50353;51.420;5.682;2023-06-10T06:39:47;101195.28;;;24.48;52.12
64095;BME280;50353;51.420;5.682;2023-06-10T06:42:13;101197.25;;;24.23;53.45
64095;BME280;50353;51.420;5.682;2023-06-10T06:44:38;101202.13;;;24.19;52.51
64095;BME280;50353;51.420;5.682;2023-06-10T06:47:03;101202.69;;;23.90;53.49
64095;BME280;50353;51.420;5.682;2023-06-10T06:49:29;101198.97;;;23.83;53.01
64095;BME280;50353;51.420;5.682;2023-06-10T06:51:54;101200.97;;;24.22;52.30
64095;BME280;50353;51.420;5.682;2023-06-10T06:54:19;101198.69;;;24.42;51.28
64095;BME280;50353;51.420;5.682;2023-06-10T06:56:45;101203.38;;;23.92;52.54
64095;BME280;50353;51.420;5.682;2023-06-10T06:59:10;101202.44;;;24.33;51.62
64095;BME280;50353;51.420;5.682;2023-06-10T07:01:36;101209.81;;;24.47;50.48
64095;BME280;50353;51.420;5.682;2023-06-10T07:04:01;101210.75;;;24.71;50.11
64095;BME280;50353;51.420;5.682;2023-06-10T07:06:26;101209.94;;;24.93;49.40
64095;BME280;50353;51.420;5.682;2023-06-10T07:08:51;101213.06;;;24.82;49.19
64095;BME280;50353;51.420;5.682;2023-06-10T07:11:17;101213.66;;;24.53;49.80
64095;BME280;50353;51.420;5.682;2023-06-10T07:13:42;101221.13;;;24.90;48.86
64095;BME280;50353;51.420;5.682;2023-06-10T07:16:08;101217.22;;;24.61;49.32
64095;BME280;50353;51.420;5.682;2023-06-10T07:18:33;101214.06;;;25.59;48.36
64095;BME280;50353;51.420;5.682;2023-06-10T07:20:58;101214.13;;;25.27;48.78
64095;BME280;50353;51.420;5.682;2023-06-10T07:23:24;101219.97;;;25.39;47.35
64095;BME280;50353;51.420;5.682;2023-06-10T07:25:49;101216.34;;;26.08;46.64
64095;BME280;50353;51.420;5.682;2023-06-10T07:28:15;101222.00;;;25.60;46.99
64095;BME280;50353;51.420;5.682;2023-06-10T07:30:40;101213.84;;;25.98;46.91
64095;BME280;50353;51.420;5.682;2023-06-10T07:33:05;101212.41;;;26.11;47.42
64095;BME280;50353;51.420;5.682;2023-06-10T07:35:32;101220.06;;;26.82;44.70
64095;BME280;50353;51.420;5.682;2023-06-10T07:37:58;101215.69;;;26.21;46.36
64095;BME280;50353;51.420;5.682;2023-06-10T07:40:23;101218.66;;;26.71;43.92
64095;BME280;50353;51.420;5.682;2023-06-10T07:42:49;101216.16;;;26.40;44.24
64095;BME280;50353;51.420;5.682;2023-06-10T07:45:14;101222.41;;;26.70;44.54
64095;BME280;50353;51.420;5.682;2023-06-10T07:47:40;101223.56;;;26.97;43.88
64095;BME280;50353;51.420;5.682;2023-06-10T07:50:05;101225.31;;;26.39;44.39
64095;BME280;50353;51.420;5.682;2023-06-10T07:52:30;101216.06;;;26.03;44.05
64095;BME280;50353;51.420;5.682;2023-06-10T07:54:56;101227.16;;;26.53;44.25
64095;BME280;50353;51.420;5.682;2023-06-10T07:57:21;101226.72;;;27.01;42.86
64095;BME280;50353;51.420;5.682;2023-06-10T07:59:46;101217.69;;;27.59;40.89
64095;BME280;50353;51.420;5.682;2023-06-10T08:02:12;101220.66;;;27.21;41.41
64095;BME280;50353;51.420;5.682;2023-06-10T08:04:37;101215.88;;;27.66;42.79
64095;BME280;50353;51.420;5.682;2023-06-10T08:07:02;101218.84;;;28.28;40.67
64095;BME280;50353;51.420;5.682;2023-06-10T08:09:28;101223.84;;;27.24;42.47
64095;BME280;50353;51.420;5.682;2023-06-10T08:11:53;101221.34;;;27.73;42.43
64095;BME280;50353;51.420;5.682;2023-06-10T08:14:20;101222.16;;;28.23;38.86
64095;BME280;50353;51.420;5.682;2023-06-10T08:16:46;101223.16;;;28.57;38.25
64095;BME280;50353;51.420;5.682;2023-06-10T08:19:11;101230.13;;;28.31;39.19
64095;BME280;50353;51.420;5.682;2023-06-10T08:21:36;101218.16;;;27.62;40.41
64095;BME280;50353;51.420;5.682;2023-06-10T08:24:05;101221.75;;;27.70;40.69
64095;BME280;50353;51.420;5.682;2023-06-10T08:26:30;101220.56;;;28.77;40.03
64095;BME280;50353;51.420;5.682;2023-06-10T08:28:56;101225.41;;;28.95;40.36
64095;BME280;50353;51.420;5.682;2023-06-10T08:31:21;101223.88;;;28.66;38.67
64095;BME280;50353;51.420;5.682;2023-06-10T08:33:46;101221.41;;;28.36;38.91
64095;BME280;50353;51.420;5.682;2023-06-10T08:36:12;101218.97;;;29.16;37.62
64095;BME280;50353;51.420;5.682;2023-06-10T08:38:37;101224.69;;;29.55;38.13
64095;BME280;50353;51.420;5.682;2023-06-10T08:41:05;101216.31;;;28.26;39.15
64095;BME280;50353;51.420;5.682;2023-06-10T08:43:56;101219.47;;;28.65;38.14
64095;BME280;50353;51.420;5.682;2023-06-10T08:46:24;101228.97;;;29.03;38.37
64095;BME280;50353;51.420;5.682;2023-06-10T08:48:53;101223.63;;;29.29;37.85
64095;BME280;50353;51.420;5.682;2023-06-10T08:51:22;101224.06;;;29.33;37.93
64095;BME280;50353;51.420;5.682;2023-06-10T08:53:53;101232.16;;;29.13;37.67
64095;BME280;50353;51.420;5.682;2023-06-10T08:56:24;101228.03;;;29.30;37.32
64095;BME280;50353;51.420;5.682;2023-06-10T08:58:51;101226.53;;;29.21;39.27
64095;BME280;50353;51.420;5.682;2023-06-10T09:01:17;101218.41;;;30.01;37.95
64095;BME280;50353;51.420;5.682;2023-06-10T09:03:43;101225.47;;;29.22;36.08
64095;BME280;50353;51.420;5.682;2023-06-10T09:06:09;101228.91;;;29.58;36.36
64095;BME280;50353;51.420;5.682;2023-06-10T09:08:34;101228.41;;;29.21;36.19
64095;BME280;50353;51.420;5.682;2023-06-10T09:11:00;101225.94;;;29.99;36.74
64095;BME280;50353;51.420;5.682;2023-06-10T09:13:25;101221.94;;;30.09;36.33
64095;BME280;50353;51.420;5.682;2023-06-10T09:15:51;101222.19;;;29.40;36.89
64095;BME280;50353;51.420;5.682;2023-06-10T09:18:16;101212.28;;;30.20;35.65
64095;BME280;50353;51.420;5.682;2023-06-10T09:20:43;101217.75;;;30.13;34.79
64095;BME280;50353;51.420;5.682;2023-06-10T09:23:08;101209.28;;;30.34;33.73
64095;BME280;50353;51.420;5.682;2023-06-10T09:25:38;101209.56;;;31.17;34.31
64095;BME280;50353;51.420;5.682;2023-06-10T09:28:04;101211.03;;;31.45;34.01
64095;BME280;50353;51.420;5.682;2023-06-10T09:30:37;101213.69;;;30.88;33.11
64095;BME280;50353;51.420;5.682;2023-06-10T09:33:10;101210.53;;;30.45;34.71
64095;BME280;50353;51.420;5.682;2023-06-10T09:35:45;101217.91;;;30.31;34.64
64095;BME280;50353;51.420;5.682;2023-06-10T09:38:10;101217.22;;;31.33;34.05
64095;BME280;50353;51.420;5.682;2023-06-10T09:40:48;101207.03;;;31.15;34.04
64095;BME280;50353;51.420;5.682;2023-06-10T09:43:14;101209.91;;;30.37;34.73
64095;BME280;50353;51.420;5.682;2023-06-10T09:45:39;101208.78;;;31.03;35.28
64095;BME280;50353;51.420;5.682;2023-06-10T09:48:05;101212.13;;;31.88;34.34
64095;BME280;50353;51.420;5.682;2023-06-10T09:50:33;101207.53;;;31.63;33.71
64095;BME280;50353;51.420;5.682;2023-06-10T09:52:59;101207.16;;;30.95;33.33
64095;BME280;50353;51.420;5.682;2023-06-10T09:55:25;101211.81;;;31.52;34.15
64095;BME280;50353;51.420;5.682;2023-06-10T09:57:53;101209.13;;;31.20;32.69
64095;BME280;50353;51.420;5.682;2023-06-10T10:00:19;101211.88;;;31.71;31.25
64095;BME280;50353;51.420;5.682;2023-06-10T10:02:46;101196.53;;;31.69;33.74
64095;BME280;50353;51.420;5.682;2023-06-10T10:05:14;101209.56;;;31.42;32.62
64095;BME280;50353;51.420;5.682;2023-06-10T10:07:40;101205.72;;;32.19;32.04
64095;BME280;50353;51.420;5.682;2023-06-10T10:10:06;101202.25;;;31.68;32.84
64095;BME280;50353;51.420;5.682;2023-06-10T10:12:34;101200.06;;;31.95;33.26
64095;BME280;50353;51.420;5.682;2023-06-10T10:15:00;101204.34;;;32.10;32.28
64095;BME280;50353;51.420;5.682;2023-06-10T10:17:27;101198.28;;;31.07;32.60
64095;BME280;50353;51.420;5.682;2023-06-10T10:19:58;101198.75;;;31.61;31.94
64095;BME280;50353;51.420;5.682;2023-06-10T10:22:30;101200.31;;;31.43;32.21
64095;BME280;50353;51.420;5.682;2023-06-10T10:24:59;101192.88;;;32.38;31.53
64095;BME280;50353;51.420;5.682;2023-06-10T10:27:27;101198.75;;;32.23;31.98
64095;BME280;50353;51.420;5.682;2023-06-10T10:29:54;101188.94;;;32.34;31.71
64095;BME280;50353;51.420;5.682;2023-06-10T10:32:31;101186.66;;;32.31;31.11
64095;BME280;50353;51.420;5.682;2023-06-10T10:35:16;101200.31;;;33.29;31.64
64095;BME280;50353;51.420;5.682;2023-06-10T10:37:42;101196.72;;;32.67;30.17
64095;BME280;50353;51.420;5.682;2023-06-10T10:40:08;101190.16;;;32.87;29.68
64095;BME280;50353;51.420;5.682;2023-06-10T10:42:35;101178.69;;;32.48;29.35
64095;BME280;50353;51.420;5.682;2023-06-10T10:45:02;101190.69;;;32.10;30.57
64095;BME280;50353;51.420;5.682;2023-06-10T10:47:27;101189.16;;;31.45;30.74
64095;BME280;50353;51.420;5.682;2023-06-10T10:49:55;101177.91;;;32.41;29.99
64095;BME280;50353;51.420;5.682;2023-06-10T10:52:24;101186.00;;;32.17;31.85
64095;BME280;50353;51.420;5.682;2023-06-10T10:54:53;101191.13;;;32.93;29.46
64095;BME280;50353;51.420;5.682;2023-06-10T10:57:20;101186.06;;;33.08;28.80
64095;BME280;50353;51.420;5.682;2023-06-10T11:02:33;101185.09;;;32.72;29.61
64095;BME280;50353;51.420;5.682;2023-06-10T11:05:00;101176.72;;;33.40;28.90
64095;BME280;50353;51.420;5.682;2023-06-10T11:07:25;101173.56;;;31.96;30.55
64095;BME280;50353;51.420;5.682;2023-06-10T11:12:23;101189.59;;;33.63;31.67
64095;BME280;50353;51.420;5.682;2023-06-10T11:14:54;101165.16;;;32.65;29.00
64095;BME280;50353;51.420;5.682;2023-06-10T11:17:20;101170.16;;;32.00;30.05
64095;BME280;50353;51.420;5.682;2023-06-10T11:19:46;101169.47;;;32.05;30.34
64095;BME280;50353;51.420;5.682;2023-06-10T11:22:17;101168.53;;;32.18;30.80
64095;BME280;50353;51.420;5.682;2023-06-10T11:24:47;101157.84;;;32.28;30.35
64095;BME280;50353;51.420;5.682;2023-06-10T11:27:22;101152.75;;;32.81;31.27
64095;BME280;50353;51.420;5.682;2023-06-10T11:30:17;101159.22;;;32.68;29.93
64095;BME280;50353;51.420;5.682;2023-06-10T11:32:42;101174.41;;;31.96;29.78
64095;BME280;50353;51.420;5.682;2023-06-10T11:35:08;101158.94;;;32.76;29.78
64095;BME280;50353;51.420;5.682;2023-06-10T11:37:33;101157.19;;;33.60;28.09
64095;BME280;50353;51.420;5.682;2023-06-10T11:39:59;101156.41;;;33.17;28.77
64095;BME280;50353;51.420;5.682;2023-06-10T11:42:24;101167.25;;;33.24;28.23
64095;BME280;50353;51.420;5.682;2023-06-10T11:44:51;101156.84;;;33.32;29.96
64095;BME280;50353;51.420;5.682;2023-06-10T11:47:17;101151.09;;;33.58;27.72
64095;BME280;50353;51.420;5.682;2023-06-10T11:49:42;101156.47;;;33.41;29.46
64095;BME280;50353;51.420;5.682;2023-06-10T11:52:08;101150.81;;;33.24;27.47
64095;BME280;50353;51.420;5.682;2023-06-10T11:54:33;101156.72;;;33.75;26.79
64095;BME280;50353;51.420;5.682;2023-06-10T11:56:59;101152.81;;;33.05;27.25
64095;BME280;50353;51.420;5.682;2023-06-10T11:59:29;101145.00;;;34.03;26.41
64095;BME280;50353;51.420;5.682;2023-06-10T12:01:54;101153.00;;;33.69;26.42
64095;BME280;50353;51.420;5.682;2023-06-10T12:04:20;101147.47;;;34.04;28.13
64095;BME280;50353;51.420;5.682;2023-06-10T12:06:50;101144.88;;;33.74;26.58
64095;BME280;50353;51.420;5.682;2023-06-10T12:11:45;101131.94;;;34.22;27.15
64095;BME280;50353;51.420;5.682;2023-06-10T12:14:13;101137.63;;;33.56;26.97
64095;BME280;50353;51.420;5.682;2023-06-10T12:16:39;101137.94;;;33.12;28.25
64095;BME280;50353;51.420;5.682;2023-06-10T12:19:04;101140.97;;;33.70;28.72
64095;BME280;50353;51.420;5.682;2023-06-10T12:21:33;101145.13;;;33.61;27.30
64095;BME280;50353;51.420;5.682;2023-06-10T12:24:03;101142.94;;;33.15;26.41
64095;BME280;50353;51.420;5.682;2023-06-10T12:26:36;101141.09;;;33.40;27.50
64095;BME280;50353;51.420;5.682;2023-06-10T12:29:14;101128.22;;;33.64;27.71
64095;BME280;50353;51.420;5.682;2023-06-10T12:31:53;101126.69;;;34.32;26.14
64095;BME280;50353;51.420;5.682;2023-06-10T12:34:19;101125.19;;;34.13;26.29
64095;BME280;50353;51.420;5.682;2023-06-10T12:36:49;101125.94;;;34.37;26.77
64095;BME280;50353;51.420;5.682;2023-06-10T12:39:14;101129.28;;;33.86;26.14
64095;BME280;50353;51.420;5.682;2023-06-10T12:41:39;101124.81;;;34.50;26.26
64095;BME280;50353;51.420;5.682;2023-06-10T12:44:05;101126.75;;;34.95;25.97
64095;BME280;50353;51.420;5.682;2023-06-10T12:46:37;101117.47;;;34.67;25.36
64095;BME280;50353;51.420;5.682;2023-06-10T12:49:02;101120.25;;;35.18;24.88
64095;BME280;50353;51.420;5.682;2023-06-10T12:51:27;101123.25;;;34.83;25.65
64095;BME280;50353;51.420;5.682;2023-06-10T12:53:53;101116.50;;;34.45;26.55
64095;BME280;50353;51.420;5.682;2023-06-10T12:56:18;101124.03;;;32.72;26.42
64095;BME280;50353;51.420;5.682;2023-06-10T12:58:43;101123.50;;;32.93;25.91
64095;BME280;50353;51.420;5.682;2023-06-10T13:01:08;101133.47;;;33.30;26.46